Time;durP1;ratioP1;P1;durP2;ratioP2;P2;SDS_P1;SDS_P2;PMS_P1;PMS_P2;Temp;Humidity;BMP_temperature;BMP_pressure;BME280_temperature;BME280_humidity;BME280_pressure;Samples;Min_cycle;Max_cycle;Signal;HPM_P1;HPM_P2
2022/06/13 00:00:16;;;;;;;6.85;1.95;;;14.80;94.30;;;;;;4999134;28;20072;-53
2022/06/13 00:02:41;;;;;;;5.53;1.80;;;14.80;94.70;;;;;;4993919;28;20033;-53
2022/06/13 00:05:08;;;;;;;6.03;1.58;;;14.80;94.30;;;;;;4997151;28;20022;-54
2022/06/13 00:07:34;;;;;;;6.63;1.75;;;14.80;94.60;;;;;;4981275;28;20084;-52
2022/06/13 00:10:00;;;;;;;4.72;1.70;;;14.80;94.90;;;;;;4998765;28;20034;-51
2022/06/13 00:12:28;;;;;;;8.93;1.75;;;14.80;95.00;;;;;;4995326;28;20030;-56
2022/06/13 00:14:53;;;;;;;5.75;1.40;;;14.80;95.20;;;;;;4994174;28;20498;-56
2022/06/13 00:17:19;;;;;;;6.18;1.77;;;14.70;95.50;;;;;;4994723;28;20034;-56
2022/06/13 00:19:45;;;;;;;5.03;1.90;;;14.70;95.60;;;;;;4997759;28;20026;-52
2022/06/13 00:22:10;;;;;;;13.45;2.10;;;14.60;96.20;;;;;;4999091;28;20050;-57
2022/06/13 00:24:36;;;;;;;6.28;1.90;;;14.60;96.30;;;;;;4992231;28;20026;-57
2022/06/13 00:27:03;;;;;;;6.35;1.63;;;14.50;96.40;;;;;;5008662;28;20490;-54
2022/06/13 00:29:28;;;;;;;7.40;2.17;;;14.50;96.40;;;;;;5008863;28;21998;-57
2022/06/13 00:31:54;;;;;;;10.80;2.33;;;14.50;96.80;;;;;;5007261;28;20034;-54
2022/06/13 00:34:20;;;;;;;3.97;1.80;;;14.60;96.80;;;;;;5008362;28;20133;-55
2022/06/13 00:36:46;;;;;;;7.50;2.10;;;14.60;96.50;;;;;;5006856;28;20034;-56
2022/06/13 00:39:11;;;;;;;7.30;1.98;;;14.60;96.90;;;;;;5010936;28;20537;-56
2022/06/13 00:41:40;;;;;;;12.55;2.10;;;14.60;97.30;;;;;;4989787;28;20030;-57
2022/06/13 00:44:33;;;;;;;6.38;2.05;;;14.50;97.30;;;;;;5007434;28;20076;-55
2022/06/13 00:46:59;;;;;;;6.88;1.80;;;14.40;97.50;;;;;;4999270;28;20658;-50
2022/06/13 00:49:38;;;;;;;12.93;2.60;;;14.40;97.80;;;;;;5007088;28;20033;-56
2022/06/13 00:52:12;;;;;;;5.95;2.20;;;14.30;98.20;;;;;;5009211;28;20641;-57
2022/06/13 00:54:41;;;;;;;7.00;2.20;;;14.20;98.80;;;;;;5009998;28;20049;-59
2022/06/13 00:57:12;;;;;;;10.52;2.58;;;14.10;98.80;;;;;;5011184;28;20077;-57
2022/06/13 00:59:39;;;;;;;6.78;2.15;;;14.00;99.40;;;;;;5008826;28;20094;-55
2022/06/13 01:02:07;;;;;;;9.05;2.50;;;14.00;99.60;;;;;;5012243;28;20101;-58
2022/06/13 01:04:33;;;;;;;5.80;1.98;;;13.90;99.80;;;;;;5005355;28;20554;-57
2022/06/13 01:07:00;;;;;;;5.80;1.83;;;13.90;99.90;;;;;;5010737;28;20045;-57
2022/06/13 01:12:13;;;;;;;9.73;2.17;;;13.80;99.90;;;;;;5010880;28;20088;-58
2022/06/13 01:15:10;;;;;;;5.97;2.13;;;13.80;99.90;;;;;;5010766;28;20033;-59
2022/06/13 01:17:44;;;;;;;5.88;1.92;;;13.70;99.90;;;;;;5010021;28;20072;-56
2022/06/13 01:20:23;;;;;;;8.48;1.98;;;13.60;99.90;;;;;;5010722;28;20018;-56
2022/06/13 01:23:07;;;;;;;8.88;1.75;;;13.60;99.90;;;;;;5007655;28;20024;-57
2022/06/13 01:26:01;;;;;;;6.55;2.08;;;13.50;99.90;;;;;;5010584;28;20018;-57
2022/06/13 01:28:48;;;;;;;8.60;2.38;;;13.50;99.90;;;;;;5010406;28;20068;-54
2022/06/13 01:31:19;;;;;;;11.68;2.25;;;13.40;99.90;;;;;;5007861;28;20452;-54
2022/06/13 01:34:13;;;;;;;9.30;2.20;;;13.30;99.90;;;;;;5006752;28;20034;-58
2022/06/13 01:36:44;;;;;;;7.70;2.28;;;13.30;99.90;;;;;;5002144;28;20461;-57
2022/06/13 01:39:38;;;;;;;9.52;2.40;;;13.20;99.90;;;;;;5005720;28;20033;-56
2022/06/13 01:42:20;;;;;;;9.25;2.45;;;13.10;99.90;;;;;;5007968;28;20450;-55
2022/06/13 01:45:13;;;;;;;7.82;2.55;;;13.00;99.90;;;;;;5007122;28;20040;-55
2022/06/13 01:47:48;;;;;;;7.00;2.55;;;13.00;99.90;;;;;;5005557;28;20034;-53
2022/06/13 01:50:16;;;;;;;4.78;2.17;;;12.90;99.90;;;;;;5010346;28;20122;-57
2022/06/13 01:53:07;;;;;;;10.23;2.90;;;12.80;99.90;;;;;;5006713;28;20034;-56
2022/06/13 01:55:45;;;;;;;10.43;2.38;;;12.70;99.90;;;;;;5000608;28;20100;-55
2022/06/13 01:58:28;;;;;;;7.53;2.45;;;12.60;99.90;;;;;;5001810;28;22095;-58
2022/06/13 02:01:09;;;;;;;11.57;2.63;;;12.60;99.90;;;;;;5000764;28;20014;-56
2022/06/13 02:03:49;;;;;;;8.63;2.72;;;12.50;99.90;;;;;;5001758;28;20145;-55
2022/06/13 02:06:26;;;;;;;8.57;2.40;;;12.50;99.90;;;;;;5007749;28;20033;-53
2022/06/13 02:08:54;;;;;;;5.55;2.15;;;12.50;99.90;;;;;;4993780;28;20210;-55
2022/06/13 02:11:33;;;;;;;10.02;2.90;;;12.50;99.90;;;;;;5009522;28;20610;-59
2022/06/13 02:14:07;;;;;;;7.03;2.38;;;12.60;99.90;;;;;;5003661;28;20056;-54
2022/06/13 02:17:08;;;;;;;4.53;1.98;;;12.60;99.90;;;;;;5001415;28;20113;-57
2022/06/13 02:19:56;;;;;;;9.23;2.50;;;12.70;99.90;;;;;;5010092;28;20036;-58
2022/06/13 02:22:36;;;;;;;6.78;2.53;;;12.70;99.90;;;;;;5010436;28;20717;-50
2022/06/13 02:25:24;;;;;;;11.52;2.88;;;12.70;99.90;;;;;;5008759;28;20562;-59
2022/06/13 02:27:56;;;;;;;10.00;2.42;;;12.80;99.90;;;;;;5009608;28;20038;-56
2022/06/13 02:30:30;;;;;;;7.88;2.22;;;12.80;99.90;;;;;;5008350;28;20557;-58
2022/06/13 02:33:02;;;;;;;8.77;3.65;;;12.90;99.90;;;;;;5010156;28;20060;-60
2022/06/13 02:35:34;;;;;;;14.35;2.90;;;12.90;99.90;;;;;;5010327;28;20034;-60
2022/06/13 02:38:12;;;;;;;11.65;2.78;;;12.90;99.90;;;;;;5010185;28;20463;-60
2022/06/13 02:40:58;;;;;;;10.52;2.60;;;13.00;99.90;;;;;;5007433;28;20480;-58
2022/06/13 02:43:37;;;;;;;9.63;3.13;;;13.00;99.90;;;;;;5005637;28;20121;-60
2022/06/13 02:46:11;;;;;;;8.73;2.38;;;12.90;99.90;;;;;;5003523;28;20026;-54
2022/06/13 02:48:46;;;;;;;12.35;3.03;;;12.90;99.90;;;;;;5006646;28;20025;-58
2022/06/13 02:51:49;;;;;;;7.32;2.55;;;12.90;99.90;;;;;;5010178;28;20041;-55
2022/06/13 02:54:33;;;;;;;8.52;2.55;;;12.90;99.90;;;;;;4997261;28;20113;-57
2022/06/13 02:57:24;;;;;;;8.18;2.40;;;12.90;99.90;;;;;;5006956;28;20060;-58
2022/06/13 02:59:50;;;;;;;5.32;2.25;;;12.80;99.90;;;;;;5009160;28;20030;-59
2022/06/13 03:02:24;;;;;;;5.75;2.40;;;12.70;99.90;;;;;;5007612;28;20403;-59
2022/06/13 03:05:05;;;;;;;8.90;2.67;;;12.60;99.90;;;;;;5009082;28;20018;-59
2022/06/13 03:07:37;;;;;;;9.73;2.60;;;12.50;99.90;;;;;;5008733;28;20038;-60
2022/06/13 03:10:41;;;;;;;10.15;2.25;;;12.50;99.90;;;;;;4997072;28;20515;-57
2022/06/13 03:13:18;;;;;;;5.20;2.00;;;12.40;99.90;;;;;;5004237;28;20040;-55
2022/06/13 03:15:54;;;;;;;6.57;2.50;;;12.40;99.90;;;;;;5009719;28;20053;-57
2022/06/13 03:18:25;;;;;;;10.68;2.70;;;12.50;99.90;;;;;;5008251;28;20042;-57
2022/06/13 03:21:34;;;;;;;5.70;2.30;;;12.50;99.90;;;;;;5007951;28;20541;-56
2022/06/13 03:24:18;;;;;;;8.85;2.40;;;12.50;99.90;;;;;;4986284;28;20116;-59
2022/06/13 03:26:49;;;;;;;6.53;2.25;;;12.50;99.90;;;;;;5006161;28;20044;-58
2022/06/13 03:29:34;;;;;;;10.65;2.35;;;12.50;99.90;;;;;;5008408;28;20044;-58
2022/06/13 03:32:08;;;;;;;8.32;2.67;;;12.50;99.90;;;;;;5007972;28;20041;-58
2022/06/13 03:34:39;;;;;;;10.15;2.30;;;12.60;99.90;;;;;;5008577;28;20430;-60
2022/06/13 03:37:17;;;;;;;7.82;2.53;;;12.60;99.90;;;;;;5007661;28;20117;-58
2022/06/13 03:39:50;;;;;;;7.68;4.45;;;12.60;99.90;;;;;;5002669;28;20052;-58
2022/06/13 03:42:23;;;;;;;6.25;3.00;;;12.60;99.90;;;;;;5009764;28;20587;-58
2022/06/13 03:45:02;;;;;;;7.80;2.67;;;12.50;99.90;;;;;;5009442;28;20057;-57
2022/06/13 03:47:27;;;;;;;7.32;2.70;;;12.50;99.90;;;;;;5006934;28;21680;-58
2022/06/13 03:49:59;;;;;;;6.63;2.20;;;12.50;99.90;;;;;;5007452;28;20029;-58
2022/06/13 03:52:27;;;;;;;12.68;2.85;;;12.50;99.90;;;;;;5008328;28;20026;-57
2022/06/13 03:55:17;;;;;;;7.53;2.67;;;12.50;99.90;;;;;;5008020;28;20033;-56
2022/06/13 03:57:58;;;;;;;10.45;2.88;;;12.60;99.90;;;;;;5006791;28;20034;-57
2022/06/13 04:00:32;;;;;;;8.20;2.80;;;12.60;99.90;;;;;;5008363;28;20129;-58
2022/06/13 04:02:59;;;;;;;7.88;2.00;;;12.60;99.90;;;;;;5008594;28;20022;-58
2022/06/13 04:05:37;;;;;;;5.18;2.28;;;12.70;99.90;;;;;;5010158;28;20080;-56
2022/06/13 04:08:06;;;;;;;7.93;2.47;;;12.80;99.90;;;;;;5008972;28;20032;-53
2022/06/13 04:10:50;;;;;;;7.22;3.08;;;12.80;99.90;;;;;;4997427;28;20064;-52
2022/06/13 04:13:29;;;;;;;5.88;2.63;;;12.80;99.90;;;;;;5008900;28;20034;-57
2022/06/13 04:16:16;;;;;;;7.88;2.60;;;12.80;99.90;;;;;;5010631;28;20388;-51
2022/06/13 04:19:03;;;;;;;7.38;2.50;;;12.80;99.90;;;;;;5010412;28;20052;-58
2022/06/13 04:21:55;;;;;;;5.55;2.67;;;12.90;99.90;;;;;;5011359;28;20676;-56
2022/06/13 04:24:27;;;;;;;4.90;2.60;;;13.00;99.90;;;;;;5009581;28;20569;-59
2022/06/13 04:27:06;;;;;;;11.10;2.70;;;13.10;99.90;;;;;;5011325;28;20025;-57
2022/06/13 04:30:01;;;;;;;4.72;2.30;;;13.30;99.90;;;;;;5011889;28;20034;-57
2022/06/13 04:32:38;;;;;;;5.72;2.05;;;13.40;99.90;;;;;;5007469;28;20519;-57
2022/06/13 04:35:05;;;;;;;5.65;2.40;;;13.50;99.90;;;;;;5011486;28;20810;-57
2022/06/13 04:37:31;;;;;;;6.78;2.33;;;13.50;99.90;;;;;;5012396;28;20434;-58
2022/06/13 04:40:01;;;;;;;8.40;2.80;;;13.50;99.90;;;;;;5010738;28;20076;-52
2022/06/13 04:42:31;;;;;;;6.60;2.72;;;13.50;99.90;;;;;;5010712;28;20104;-57
2022/06/13 04:45:05;;;;;;;7.50;2.30;;;13.70;99.90;;;;;;5009795;28;20087;-59
2022/06/13 04:47:31;;;;;;;8.85;2.55;;;14.20;99.90;;;;;;5011023;28;20718;-56
2022/06/13 04:49:58;;;;;;;4.63;2.35;;;15.60;99.90;;;;;;5010928;28;20038;-57
2022/06/13 04:52:31;;;;;;;5.97;3.30;;;16.80;99.90;;;;;;5011838;28;20064;-60
2022/06/13 04:55:01;;;;;;;14.07;2.85;;;17.30;99.90;;;;;;5010985;28;20220;-61
2022/06/13 04:57:28;;;;;;;7.95;2.70;;;17.10;99.90;;;;;;5009237;28;20098;-58
2022/06/13 04:59:55;;;;;;;9.63;2.90;;;16.60;99.90;;;;;;5011770;28;20033;-60
2022/06/13 05:02:23;;;;;;;9.20;3.40;;;16.20;99.90;;;;;;5010435;28;20407;-59
2022/06/13 05:04:50;;;;;;;4.85;2.38;;;16.10;99.90;;;;;;5008107;28;20038;-60
2022/06/13 05:07:19;;;;;;;7.85;2.67;;;15.80;99.90;;;;;;5009761;28;20042;-59
2022/06/13 05:09:52;;;;;;;5.60;2.40;;;15.50;99.90;;;;;;4988852;28;20045;-57
2022/06/13 05:12:33;;;;;;;5.72;2.53;;;15.30;99.90;;;;;;5010699;28;20038;-58
2022/06/13 05:15:08;;;;;;;8.50;2.80;;;15.10;99.90;;;;;;4999272;28;20030;-60
2022/06/13 05:18:10;;;;;;;5.15;2.25;;;14.90;99.90;;;;;;5008493;28;20120;-59
2022/06/13 05:20:36;;;;;;;12.45;2.80;;;14.90;99.90;;;;;;5010075;28;20021;-58
2022/06/13 05:23:22;;;;;;;7.40;2.90;;;15.00;99.90;;;;;;5010494;28;20033;-56
2022/06/13 05:25:55;;;;;;;8.82;3.25;;;15.00;99.90;;;;;;5008286;28;20105;-60
2022/06/13 05:28:29;;;;;;;8.23;3.20;;;14.80;99.90;;;;;;5010086;28;20369;-59
2022/06/13 05:30:57;;;;;;;7.82;3.47;;;14.60;99.90;;;;;;5002746;28;20068;-58
2022/06/13 05:33:26;;;;;;;9.00;3.10;;;14.20;99.90;;;;;;5005323;28;20041;-57
2022/06/13 05:35:54;;;;;;;5.38;2.90;;;14.10;99.90;;;;;;5005194;28;20033;-55
2022/06/13 05:38:30;;;;;;;6.00;2.70;;;13.90;99.90;;;;;;5010477;28;20025;-60
2022/06/13 05:40:56;;;;;;;8.25;3.13;;;13.80;99.90;;;;;;5010268;28;20022;-58
2022/06/13 05:43:21;;;;;;;6.90;3.97;;;13.90;99.90;;;;;;5010170;28;20041;-58
2022/06/13 05:45:47;;;;;;;8.80;3.28;;;13.90;99.90;;;;;;5008701;28;20515;-59
2022/06/13 05:48:15;;;;;;;11.43;3.40;;;14.10;99.90;;;;;;5009341;28;20030;-59
2022/06/13 05:50:42;;;;;;;5.88;2.90;;;14.20;99.90;;;;;;5008884;28;20117;-60
2022/06/13 05:53:12;;;;;;;11.23;3.15;;;14.30;99.90;;;;;;5010844;28;20030;-59
2022/06/13 05:55:38;;;;;;;24.60;5.07;;;14.20;99.90;;;;;;5007888;28;20021;-59
2022/06/13 05:58:04;;;;;;;10.82;3.90;;;14.20;99.90;;;;;;5009465;28;20038;-58
2022/06/13 06:00:36;;;;;;;15.95;5.30;;;14.20;99.90;;;;;;5008656;28;20029;-59
2022/06/13 06:03:02;;;;;;;9.30;3.50;;;14.00;99.90;;;;;;5007964;28;20076;-57
2022/06/13 06:05:27;;;;;;;7.13;3.28;;;13.90;99.90;;;;;;5007443;28;20484;-58
2022/06/13 06:07:53;;;;;;;10.90;3.28;;;14.00;99.90;;;;;;5009465;28;20053;-60
2022/06/13 06:10:23;;;;;;;9.20;3.75;;;13.90;99.90;;;;;;4992364;28;20054;-53
2022/06/13 06:12:48;;;;;;;7.18;3.10;;;13.80;99.90;;;;;;5008904;28;20426;-54
2022/06/13 06:15:14;;;;;;;14.50;3.45;;;13.70;99.90;;;;;;5008632;28;20030;-57
2022/06/13 06:17:40;;;;;;;13.80;4.00;;;13.80;99.90;;;;;;5008264;28;20112;-55
2022/06/13 06:20:06;;;;;;;10.57;4.13;;;13.80;99.90;;;;;;5008046;28;20026;-57
2022/06/13 06:22:31;;;;;;;10.02;3.80;;;13.90;99.90;;;;;;5008142;28;20026;-54
2022/06/13 06:24:58;;;;;;;14.70;4.53;;;14.10;99.90;;;;;;5006475;28;20074;-54
2022/06/13 06:27:23;;;;;;;5.63;3.88;;;14.30;99.90;;;;;;5000824;28;20037;-57
2022/06/13 06:29:49;;;;;;;10.30;4.18;;;14.70;99.90;;;;;;5004900;28;20037;-58
2022/06/13 06:32:14;;;;;;;8.90;3.38;;;15.00;99.90;;;;;;5008631;28;20037;-59
2022/06/13 06:34:41;;;;;;;12.77;3.95;;;15.30;99.90;;;;;;5007707;28;20104;-58
2022/06/13 06:37:07;;;;;;;9.68;4.20;;;15.50;99.90;;;;;;5007112;28;20101;-57
2022/06/13 06:39:33;;;;;;;7.75;3.95;;;15.60;99.90;;;;;;5007340;28;20100;-58
2022/06/13 06:41:59;;;;;;;12.70;4.38;;;16.30;99.90;;;;;;5008951;28;20044;-55
2022/06/13 06:44:24;;;;;;;11.60;4.55;;;17.70;99.90;;;;;;5008796;28;20048;-59
2022/06/13 06:46:50;;;;;;;11.13;3.95;;;18.20;99.90;;;;;;5008276;28;20391;-57
2022/06/13 06:49:15;;;;;;;9.45;3.80;;;19.10;99.90;;;;;;5009383;28;20030;-59
2022/06/13 06:51:43;;;;;;;9.25;3.42;;;20.60;99.40;;;;;;5009464;28;20080;-61
2022/06/13 06:59:55;;;;;;;10.93;4.55;;;24.10;90.60;;;;;;5008310;28;20096;-60
2022/06/13 07:02:26;;;;;;;8.88;4.22;;;23.50;90.00;;;;;;5007447;28;20030;-58
2022/06/13 07:04:54;;;;;;;11.75;5.68;;;22.90;92.80;;;;;;5008609;28;20030;-58
2022/06/13 07:07:20;;;;;;;10.35;5.68;;;21.90;92.80;;;;;;5007404;28;20030;-62
2022/06/13 07:09:46;;;;;;;13.38;5.78;;;21.20;93.80;;;;;;4996140;28;20072;-60
2022/06/13 07:12:12;;;;;;;11.43;5.93;;;20.70;95.90;;;;;;5008537;28;20030;-59
2022/06/13 07:14:38;;;;;;;13.35;5.65;;;20.00;96.00;;;;;;5006936;28;20041;-60
2022/06/13 07:17:06;;;;;;;11.85;6.00;;;19.40;96.30;;;;;;5006317;28;20105;-59
2022/06/13 07:19:32;;;;;;;13.90;5.95;;;18.70;99.40;;;;;;5008335;28;20102;-59
2022/06/13 07:21:59;;;;;;;14.65;6.05;;;18.30;99.90;;;;;;5007300;28;20034;-53
2022/06/13 07:24:26;;;;;;;17.30;6.93;;;17.80;99.90;;;;;;5005258;28;20057;-58
2022/06/13 07:26:52;;;;;;;16.95;7.60;;;17.60;99.90;;;;;;5007231;28;20042;-57
2022/06/13 07:29:18;;;;;;;18.00;5.88;;;17.70;99.90;;;;;;5009422;28;20097;-59
2022/06/13 07:31:47;;;;;;;16.42;5.50;;;17.80;99.90;;;;;;5008774;28;20113;-60
2022/06/13 07:34:19;;;;;;;16.05;5.45;;;18.20;99.90;;;;;;5008904;28;20535;-59
2022/06/13 07:36:46;;;;;;;17.58;5.28;;;18.70;99.90;;;;;;5006996;28;20022;-59
2022/06/13 07:39:11;;;;;;;14.50;5.15;;;19.00;99.90;;;;;;5010303;28;20105;-57
2022/06/13 07:41:39;;;;;;;13.80;4.93;;;19.20;99.90;;;;;;5009922;28;20144;-55
2022/06/13 07:44:06;;;;;;;10.75;4.25;;;20.20;99.90;;;;;;5012871;28;20026;-62
2022/06/13 07:46:32;;;;;;;15.25;4.65;;;22.30;96.80;;;;;;5011085;28;20025;-60
2022/06/13 07:48:59;;;;;;;14.57;4.70;;;23.50;92.10;;;;;;5011351;28;20026;-62
2022/06/13 07:51:26;;;;;;;10.88;4.70;;;24.50;90.80;;;;;;5012511;28;20029;-61
2022/06/13 07:53:52;;;;;;;11.65;4.53;;;25.10;84.10;;;;;;5008048;28;20488;-60
2022/06/13 07:56:22;;;;;;;17.38;4.65;;;25.40;83.70;;;;;;5009203;28;20120;-61
2022/06/13 07:58:50;;;;;;;13.13;4.00;;;25.70;84.50;;;;;;5011246;28;20399;-58
2022/06/13 08:01:17;;;;;;;10.63;4.20;;;26.40;83.10;;;;;;5010771;28;20048;-60
2022/06/13 08:03:43;;;;;;;13.40;4.00;;;26.30;82.40;;;;;;5007923;28;20109;-57
2022/06/13 08:06:10;;;;;;;12.85;4.80;;;27.10;79.90;;;;;;5009747;28;20057;-59
2022/06/13 08:08:36;;;;;;;11.02;3.97;;;27.60;80.20;;;;;;5011552;28;20077;-57
2022/06/13 08:11:04;;;;;;;13.57;4.07;;;27.50;73.70;;;;;;4996112;28;20419;-57
2022/06/13 08:13:30;;;;;;;12.80;4.32;;;25.90;75.50;;;;;;5010126;28;20034;-55
2022/06/13 08:15:57;;;;;;;12.50;4.53;;;25.50;77.90;;;;;;5011016;28;20405;-55
2022/06/13 08:18:23;;;;;;;18.85;4.50;;;25.60;76.50;;;;;;5008812;28;20061;-57
2022/06/13 08:20:50;;;;;;;13.45;4.78;;;25.70;78.00;;;;;;5007739;28;20034;-59
2022/06/13 08:23:18;;;;;;;12.52;4.38;;;25.60;77.00;;;;;;5009905;28;20026;-58
2022/06/13 08:25:44;;;;;;;11.48;4.43;;;26.20;75.90;;;;;;5012229;28;20025;-55
2022/06/13 08:28:11;;;;;;;16.92;4.97;;;26.60;74.70;;;;;;5009251;28;20095;-59
2022/06/13 08:30:38;;;;;;;13.70;4.82;;;26.30;74.60;;;;;;5008453;28;20032;-56
2022/06/13 08:33:04;;;;;;;12.10;4.55;;;25.30;75.60;;;;;;5011387;28;20064;-58
2022/06/13 08:35:30;;;;;;;14.52;5.50;;;24.90;77.40;;;;;;5011505;28;20026;-59
2022/06/13 08:37:55;;;;;;;11.10;4.35;;;24.10;80.40;;;;;;5010975;28;20084;-58
2022/06/13 08:40:25;;;;;;;17.75;5.03;;;23.90;82.20;;;;;;5007490;28;20435;-61
2022/06/13 08:43:05;;;;;;;8.43;4.22;;;24.20;80.80;;;;;;5009847;28;20492;-55
2022/06/13 08:45:47;;;;;;;13.05;4.72;;;25.50;79.50;;;;;;5010710;28;20048;-58
2022/06/13 08:48:19;;;;;;;18.63;6.68;;;25.60;76.30;;;;;;5010240;28;20113;-60
2022/06/13 08:51:09;;;;;;;16.73;6.00;;;26.40;75.10;;;;;;5010777;28;20029;-60
2022/06/13 08:54:00;;;;;;;14.45;4.78;;;25.70;74.70;;;;;;5011886;28;20034;-59
2022/06/13 08:56:30;;;;;;;17.65;5.40;;;25.20;76.10;;;;;;5005702;28;20038;-58
2022/06/13 08:59:24;;;;;;;14.65;6.72;;;24.10;77.80;;;;;;5009259;28;20117;-61
2022/06/13 09:01:56;;;;;;;21.70;5.95;;;23.30;81.70;;;;;;5010748;28;20030;-60
2022/06/13 09:04:37;;;;;;;17.30;5.70;;;23.80;82.30;;;;;;5011623;28;20030;-59
2022/06/13 09:07:15;;;;;;;16.45;5.57;;;23.70;82.10;;;;;;5010456;28;20484;-60
2022/06/13 09:09:53;;;;;;;22.08;6.78;;;24.70;81.60;;;;;;4995250;28;20050;-62
2022/06/13 09:12:24;;;;;;;13.45;5.82;;;26.00;75.80;;;;;;5008550;28;20391;-61
2022/06/13 09:15:05;;;;;;;18.40;6.22;;;26.00;74.90;;;;;;5004838;28;20030;-62
2022/06/13 09:17:48;;;;;;;16.98;6.63;;;25.20;76.50;;;;;;5007757;28;20076;-60
2022/06/13 09:20:31;;;;;;;18.75;6.97;;;24.40;76.60;;;;;;5004498;28;20083;-60
2022/06/13 09:23:38;;;;;;;14.43;6.60;;;23.70;79.40;;;;;;5007130;28;20022;-60
2022/06/13 09:26:13;;;;;;;13.70;7.43;;;23.60;79.60;;;;;;5010528;28;20037;-59
2022/06/13 09:28:46;;;;;;;24.08;6.57;;;22.90;82.10;;;;;;5007184;28;20101;-62
2022/06/13 09:31:38;;;;;;;18.20;6.90;;;22.30;83.80;;;;;;5010526;28;20018;-57
2022/06/13 09:34:39;;;;;;;22.67;7.43;;;21.90;85.00;;;;;;5011868;28;20026;-55
2022/06/13 09:37:11;;;;;;;17.27;7.55;;;21.40;86.60;;;;;;5002841;28;20030;-58
2022/06/13 09:39:38;;;;;;;18.52;7.32;;;20.90;89.30;;;;;;5006553;28;20026;-60
2022/06/13 09:42:22;;;;;;;21.85;8.90;;;20.90;88.80;;;;;;5008140;28;20760;-58
2022/06/13 09:45:06;;;;;;;17.40;6.43;;;21.20;90.00;;;;;;5011197;28;20018;-59
2022/06/13 09:48:20;;;;;;;19.95;6.88;;;21.80;86.50;;;;;;5007843;28;20550;-58
2022/06/13 09:51:08;;;;;;;15.00;6.25;;;22.20;85.80;;;;;;5005231;28;20121;-59
2022/06/13 09:53:42;;;;;;;14.52;5.38;;;22.40;88.50;;;;;;5007252;28;20038;-60
2022/06/13 09:56:16;;;;;;;13.57;5.10;;;22.80;83.50;;;;;;5006406;28;20451;-59
2022/06/13 09:59:08;;;;;;;25.10;5.88;;;23.00;84.60;;;;;;5009629;28;20026;-59
2022/06/13 10:01:59;;;;;;;13.85;5.15;;;22.80;81.60;;;;;;4997535;28;20116;-58
2022/06/13 10:04:39;;;;;;;19.92;5.72;;;22.20;83.60;;;;;;5001138;28;20033;-58
2022/06/13 10:07:20;;;;;;;16.15;5.90;;;21.90;86.00;;;;;;5010778;28;20094;-57
2022/06/13 10:09:58;;;;;;;20.73;6.18;;;21.30;85.10;;;;;;4987507;28;20171;-58
2022/06/13 10:12:34;;;;;;;17.77;6.05;;;20.90;89.60;;;;;;5010016;28;20033;-57
2022/06/13 10:15:31;;;;;;;23.30;7.05;;;20.50;88.90;;;;;;5006820;28;20471;-56
2022/06/13 10:18:11;;;;;;;21.10;6.40;;;20.20;89.10;;;;;;5008065;28;20030;-54
2022/06/13 10:21:28;;;;;;;17.05;5.97;;;20.00;90.40;;;;;;5009810;28;20056;-57
2022/06/13 10:24:20;;;;;;;16.42;5.65;;;19.70;92.20;;;;;;4994644;28;20052;-55
2022/06/13 10:27:07;;;;;;;24.83;7.53;;;19.50;93.00;;;;;;5007111;28;20022;-57
2022/06/13 10:29:50;;;;;;;15.50;6.85;;;19.40;93.40;;;;;;5009712;28;20026;-58
2022/06/13 10:32:39;;;;;;;23.30;6.53;;;19.60;93.30;;;;;;5010035;28;20076;-60
2022/06/13 10:35:33;;;;;;;20.50;5.70;;;19.80;92.60;;;;;;5002283;28;20026;-59
2022/06/13 10:38:43;;;;;;;14.85;5.25;;;20.20;92.60;;;;;;5007331;28;20032;-56
2022/06/13 10:41:09;;;;;;;17.73;5.72;;;20.40;91.60;;;;;;4992203;28;20136;-57
2022/06/13 10:43:37;;;;;;;14.70;5.32;;;20.70;91.10;;;;;;5005560;28;20034;-58
2022/06/13 10:46:04;;;;;;;17.95;5.25;;;21.10;91.00;;;;;;5007893;28;20034;-58
2022/06/13 10:48:44;;;;;;;20.67;4.75;;;21.50;89.10;;;;;;5002593;28;20038;-57
2022/06/13 10:51:09;;;;;;;16.75;4.68;;;22.10;88.80;;;;;;5004946;28;20034;-59
2022/06/13 10:53:42;;;;;;;15.05;4.88;;;22.20;85.20;;;;;;5007629;28;20029;-58
2022/06/13 10:56:19;;;;;;;15.85;5.47;;;22.40;85.50;;;;;;5009539;28;20083;-59
2022/06/13 10:58:47;;;;;;;10.63;3.45;;;22.40;85.20;;;;;;5003053;28;20399;-59
2022/06/13 11:01:28;;;;;;;12.32;3.10;;;22.50;82.00;;;;;;5009284;28;20022;-61
2022/06/13 11:04:17;;;;;;;12.52;3.40;;;22.50;82.10;;;;;;5004955;28;20034;-60
2022/06/13 11:06:50;;;;;;;13.77;3.10;;;22.60;80.70;;;;;;4996840;28;20476;-60
2022/06/13 11:09:54;;;;;;;15.32;3.70;;;22.30;81.30;;;;;;4998492;28;20087;-60
2022/06/13 11:12:31;;;;;;;13.68;3.50;;;22.00;82.90;;;;;;4975537;28;20054;-60
2022/06/13 11:24:00;;;;;;;11.95;2.78;;;21.10;80.40;;;;;;5005325;28;20041;-61
2022/06/13 11:29:18;;;;;;;12.48;3.42;;;21.80;78.70;;;;;;5005217;28;20044;-58
2022/06/13 11:31:53;;;;;;;12.07;2.78;;;22.00;77.70;;;;;;5006918;28;20104;-58
2022/06/13 11:34:44;;;;;;;14.02;3.38;;;22.10;77.10;;;;;;5009542;28;20053;-60
2022/06/13 11:37:13;;;;;;;12.93;2.85;;;22.10;74.40;;;;;;5004224;28;20554;-56
2022/06/13 11:39:46;;;;;;;11.23;3.72;;;21.70;76.90;;;;;;5005164;28;20431;-59
2022/06/13 11:42:33;;;;;;;14.77;3.97;;;21.80;77.60;;;;;;5006661;28;20018;-58
2022/06/13 11:45:06;;;;;;;14.40;3.20;;;21.60;77.20;;;;;;5008399;28;20038;-59
2022/06/13 11:47:44;;;;;;;12.33;3.80;;;21.50;77.30;;;;;;5006564;28;20064;-58
2022/06/13 11:50:33;;;;;;;10.65;2.90;;;21.30;77.20;;;;;;5009163;28;20084;-59
2022/06/13 11:55:57;;;;;;;9.45;2.88;;;21.20;77.20;;;;;;5006372;28;20514;-57
2022/06/13 11:58:25;;;;;;;18.02;4.00;;;21.10;76.20;;;;;;5005873;28;20045;-59
2022/06/13 12:00:54;;;;;;;15.88;3.40;;;21.00;76.90;;;;;;5009922;28;20392;-58
2022/06/13 12:03:25;;;;;;;12.40;3.13;;;21.30;78.80;;;;;;5007774;28;20041;-58
2022/06/13 12:06:14;;;;;;;12.38;4.15;;;21.50;78.70;;;;;;5003582;28;20042;-57
2022/06/13 12:08:40;;;;;;;12.30;3.00;;;21.20;77.40;;;;;;5004332;28;20026;-58
2022/06/13 12:11:08;;;;;;;10.70;3.05;;;21.30;77.30;;;;;;4991023;28;20053;-56
2022/06/13 12:13:38;;;;;;;11.48;2.85;;;21.30;77.20;;;;;;5008869;28;20029;-55
2022/06/13 12:16:25;;;;;;;7.63;2.47;;;21.30;77.80;;;;;;5005889;28;20030;-57
2022/06/13 12:19:04;;;;;;;12.30;3.25;;;21.60;75.90;;;;;;5006956;28;20053;-59
2022/06/13 12:21:48;;;;;;;11.02;2.25;;;21.60;75.00;;;;;;5004436;28;20280;-61
2022/06/13 12:24:28;;;;;;;7.30;2.47;;;21.80;76.20;;;;;;5008059;28;20032;-57
2022/06/13 12:27:01;;;;;;;7.28;2.63;;;21.80;75.10;;;;;;5006335;28;20113;-60
2022/06/13 12:29:43;;;;;;;14.10;2.83;;;21.40;75.40;;;;;;5008778;28;20034;-58
2022/06/13 12:32:22;;;;;;;5.38;2.10;;;21.10;75.30;;;;;;5010768;28;20063;-60
2022/06/13 12:35:03;;;;;;;7.18;3.42;;;20.80;75.00;;;;;;5007892;28;20029;-57
2022/06/13 12:37:53;;;;;;;12.30;2.80;;;20.80;76.50;;;;;;5009253;28;20049;-60
2022/06/13 12:40:21;;;;;;;13.85;2.88;;;20.80;76.70;;;;;;5010217;28;20054;-60
2022/06/13 12:43:01;;;;;;;7.00;2.50;;;20.90;77.60;;;;;;5004454;28;20083;-58
2022/06/13 12:45:45;;;;;;;10.68;2.50;;;21.40;77.30;;;;;;5010979;28;20498;-58
2022/06/13 12:48:21;;;;;;;9.25;2.22;;;21.50;77.80;;;;;;5012479;28;20038;-57
2022/06/13 12:51:08;;;;;;;5.53;2.30;;;21.80;77.30;;;;;;5008977;28;20037;-59
2022/06/13 12:53:52;;;;;;;5.28;2.05;;;21.90;73.50;;;;;;5010593;28;20435;-60
2022/06/13 12:56:24;;;;;;;7.85;2.38;;;22.00;73.50;;;;;;5003316;28;20042;-59
2022/06/13 12:59:23;;;;;;;8.95;2.35;;;22.10;71.90;;;;;;5012120;28;20057;-59
2022/06/13 13:02:14;;;;;;;4.03;1.70;;;21.80;69.40;;;;;;5010081;28;20026;-60
2022/06/13 13:04:49;;;;;;;6.75;1.83;;;21.60;68.60;;;;;;5009500;28;20057;-58
2022/06/13 13:07:34;;;;;;;4.80;1.70;;;21.70;69.60;;;;;;5011116;28;20026;-57
2022/06/13 13:10:33;;;;;;;5.97;1.88;;;21.70;70.20;;;;;;5008231;28;20108;-57
2022/06/13 13:13:17;;;;;;;5.75;1.98;;;22.20;72.60;;;;;;5011907;28;20041;-55
2022/06/13 13:16:04;;;;;;;9.02;2.58;;;22.50;71.10;;;;;;5011781;28;20403;-58
2022/06/13 13:18:51;;;;;;;7.38;2.10;;;22.40;70.60;;;;;;5010208;28;20112;-58
2022/06/13 13:21:32;;;;;;;5.45;1.88;;;22.00;73.40;;;;;;5007911;28;20101;-61
2022/06/13 13:24:22;;;;;;;10.50;2.40;;;21.90;73.80;;;;;;5006884;28;20510;-61
2022/06/13 13:26:54;;;;;;;4.20;1.85;;;21.80;74.10;;;;;;5005325;28;20101;-57
2022/06/13 13:29:44;;;;;;;8.90;2.40;;;21.70;74.30;;;;;;5010397;28;20034;-58
2022/06/13 13:32:48;;;;;;;6.35;2.13;;;21.50;74.90;;;;;;5007455;28;20518;-56
2022/06/13 13:35:29;;;;;;;9.38;2.10;;;21.50;74.20;;;;;;5009063;28;20496;-57
2022/06/13 13:38:11;;;;;;;7.13;2.10;;;21.60;75.60;;;;;;5005127;28;20022;-58
2022/06/13 13:40:46;;;;;;;5.60;1.92;;;21.60;76.10;;;;;;5009692;28;20092;-56
2022/06/13 13:43:19;;;;;;;12.30;2.90;;;21.50;75.90;;;;;;5003969;28;20038;-57
2022/06/13 13:46:01;;;;;;;11.70;3.22;;;21.50;75.30;;;;;;4996121;28;20105;-59